Time;durP1;ratioP1;P1;durP2;ratioP2;P2;SDS_P1;SDS_P2;PMS_P1;PMS_P2;Temp;Humidity;BMP_temperature;BMP_pressure;BME280_temperature;BME280_humidity;BME280_pressure;Samples;Min_cycle;Max_cycle;Signal;HPM_P1;HPM_P2
2021/01/14 00:00:18;;;;;;;17.97;10.23;;;5.60;99.90;;;;;;4994398;28;20635;-84
2021/01/14 00:02:43;;;;;;;11.47;8.03;;;5.70;99.90;;;;;;4994052;28;20171;-83
2021/01/14 00:05:11;;;;;;;13.63;10.00;;;5.70;99.90;;;;;;4993971;28;20175;-83
2021/01/14 00:07:37;;;;;;;15.00;10.73;;;5.70;99.90;;;;;;4993661;28;20245;-84
2021/01/14 00:10:08;;;;;;;14.13;9.47;;;5.70;99.90;;;;;;4994214;28;20262;-83
2021/01/14 00:12:34;;;;;;;17.70;10.47;;;5.70;99.90;;;;;;4996022;28;20689;-83
2021/01/14 00:15:00;;;;;;;18.90;11.97;;;5.70;99.90;;;;;;5015017;28;20158;-84
2021/01/14 00:17:25;;;;;;;17.73;11.17;;;5.80;99.90;;;;;;5000579;28;20178;-84
2021/01/14 00:19:51;;;;;;;16.97;11.20;;;5.80;99.90;;;;;;4993877;28;20174;-84
2021/01/14 00:22:16;;;;;;;16.03;10.73;;;5.70;99.90;;;;;;4993898;28;20635;-83
2021/01/14 00:24:42;;;;;;;16.63;11.00;;;5.70;99.90;;;;;;4993686;28;20575;-83
2021/01/14 00:27:09;;;;;;;18.07;11.20;;;5.80;99.90;;;;;;4993796;28;20174;-82
2021/01/14 00:29:35;;;;;;;14.37;10.53;;;5.80;99.90;;;;;;4993713;28;20214;-83
2021/01/14 00:32:00;;;;;;;16.33;11.70;;;5.80;99.90;;;;;;5006889;28;20185;-84
2021/01/14 00:34:26;;;;;;;16.50;10.67;;;6.00;99.90;;;;;;4993532;28;20545;-83
2021/01/14 00:39:36;;;;;;;16.03;10.13;;;5.90;99.90;;;;;;4994843;28;20197;-84
2021/01/14 00:42:01;;;;;;;13.90;10.43;;;5.90;99.90;;;;;;4993397;28;20175;-85
2021/01/14 00:44:27;;;;;;;14.37;10.17;;;5.80;99.90;;;;;;4993329;28;20186;-83
2021/01/14 00:46:57;;;;;;;14.23;9.87;;;5.90;99.90;;;;;;4993482;28;20628;-83
2021/01/14 00:49:23;;;;;;;15.33;11.10;;;5.90;99.90;;;;;;4993015;28;20219;-83
2021/01/14 00:51:49;;;;;;;16.40;11.10;;;6.10;99.90;;;;;;4993193;28;20269;-84
2021/01/14 00:54:15;;;;;;;19.17;11.93;;;6.10;99.90;;;;;;4993217;28;20182;-86
2021/01/14 00:56:42;;;;;;;16.13;11.57;;;6.10;99.90;;;;;;4993276;28;20565;-84
2021/01/14 00:59:08;;;;;;;18.23;11.27;;;6.30;99.90;;;;;;4993594;28;20179;-84
2021/01/14 01:01:34;;;;;;;15.97;12.93;;;6.30;99.90;;;;;;4993335;28;20178;-85
2021/01/14 01:04:01;;;;;;;18.03;13.40;;;6.20;99.90;;;;;;4993509;28;20249;-84
2021/01/14 01:06:35;;;;;;;15.50;11.07;;;6.10;99.90;;;;;;4993953;28;20171;-83
2021/01/14 01:09:03;;;;;;;18.07;12.60;;;5.90;99.90;;;;;;4994193;28;20226;-84
2021/01/14 01:11:30;;;;;;;15.53;11.33;;;6.10;99.90;;;;;;4993273;28;20187;-85
2021/01/14 01:13:55;;;;;;;15.17;10.23;;;6.20;99.90;;;;;;4994430;28;20214;-84
2021/01/14 01:16:21;;;;;;;19.27;12.03;;;6.00;99.90;;;;;;4992625;28;20580;-85
2021/01/14 01:18:47;;;;;;;22.00;12.37;;;5.70;99.90;;;;;;4993023;28;20576;-85
2021/01/14 01:21:13;;;;;;;17.10;11.23;;;5.60;99.90;;;;;;4993019;28;20193;-86
2021/01/14 01:23:39;;;;;;;13.97;10.87;;;5.60;99.90;;;;;;4993156;28;20175;-85
2021/01/14 01:26:05;;;;;;;17.07;11.23;;;5.50;99.90;;;;;;4993132;28;20233;-84
2021/01/14 01:28:32;;;;;;;13.93;9.20;;;5.50;99.90;;;;;;4992675;28;20202;-84
2021/01/14 01:30:58;;;;;;;15.40;10.73;;;5.50;99.90;;;;;;4992690;28;20181;-83
2021/01/14 01:33:28;;;;;;;13.17;9.87;;;5.40;99.90;;;;;;4992783;28;20175;-85
2021/01/14 01:35:54;;;;;;;16.43;10.97;;;5.60;99.90;;;;;;4992531;28;20166;-83
2021/01/14 01:38:21;;;;;;;15.67;9.87;;;5.40;99.90;;;;;;4992674;28;20738;-85
2021/01/14 01:41:00;;;;;;;16.73;10.83;;;5.50;99.90;;;;;;4992440;28;20679;-85
2021/01/14 01:43:27;;;;;;;14.37;10.73;;;5.70;99.90;;;;;;4992523;28;20274;-84
2021/01/14 01:45:53;;;;;;;15.90;9.90;;;5.40;99.90;;;;;;4992435;28;20182;-84
2021/01/14 01:48:20;;;;;;;14.73;10.17;;;5.40;99.90;;;;;;4992422;28;20675;-83
2021/01/14 01:50:50;;;;;;;13.83;10.17;;;5.40;99.90;;;;;;4993360;28;20669;-84
2021/01/14 01:53:16;;;;;;;12.70;9.20;;;5.50;99.90;;;;;;4993860;28;20639;-83
2021/01/14 01:55:44;;;;;;;14.03;9.63;;;5.30;99.90;;;;;;4992328;28;20181;-84
2021/01/14 01:58:11;;;;;;;14.00;10.27;;;5.50;99.90;;;;;;4992630;28;20175;-84
2021/01/14 02:00:37;;;;;;;14.93;9.70;;;5.60;99.90;;;;;;4992243;28;20178;-83
2021/01/14 02:03:03;;;;;;;12.97;9.90;;;5.80;99.90;;;;;;4992304;28;20374;-84
2021/01/14 02:05:29;;;;;;;14.10;9.63;;;5.50;99.90;;;;;;4992433;28;20722;-83
2021/01/14 02:07:54;;;;;;;13.17;9.30;;;5.40;99.90;;;;;;4993846;28;20248;-84
2021/01/14 02:10:40;;;;;;;12.27;8.60;;;5.40;99.90;;;;;;4992392;28;20186;-83
2021/01/14 02:13:15;;;;;;;13.17;9.80;;;5.40;99.90;;;;;;4992504;28;20250;-83
2021/01/14 02:15:43;;;;;;;14.07;9.47;;;5.50;99.90;;;;;;4992132;28;20268;-84
2021/01/14 02:18:09;;;;;;;13.60;9.17;;;5.50;99.90;;;;;;4992363;28;20175;-82
2021/01/14 02:20:36;;;;;;;12.27;9.07;;;5.40;99.90;;;;;;4992143;28;20588;-83
2021/01/14 02:23:35;;;;;;;13.07;9.20;;;5.30;99.90;;;;;;4992350;28;20203;-86
2021/01/14 02:26:24;;;;;;;12.20;9.00;;;5.30;99.90;;;;;;4992135;28;20254;-87
2021/01/14 02:28:52;;;;;;;14.20;9.67;;;5.30;99.90;;;;;;4994567;28;20213;-85
2021/01/14 02:31:20;;;;;;;11.57;8.33;;;5.40;99.90;;;;;;4995985;28;20203;-83
2021/01/14 02:33:50;;;;;;;13.80;10.13;;;5.40;99.90;;;;;;4996003;28;20183;-82
2021/01/14 02:36:16;;;;;;;12.93;9.37;;;5.50;99.90;;;;;;4995978;28;20226;-85
2021/01/14 02:38:42;;;;;;;11.17;9.17;;;5.40;99.90;;;;;;4996222;28;20597;-84
2021/01/14 02:41:07;;;;;;;12.70;9.90;;;5.40;99.90;;;;;;4995921;28;20199;-83
2021/01/14 02:43:35;;;;;;;13.30;9.40;;;5.50;99.90;;;;;;4995863;28;20632;-83
2021/01/14 02:46:02;;;;;;;13.20;9.63;;;5.40;99.90;;;;;;4995909;28;20182;-87
2021/01/14 02:48:52;;;;;;;12.07;9.77;;;5.50;99.90;;;;;;4995483;28;20211;-83
2021/01/14 02:51:41;;;;;;;14.67;10.33;;;5.40;99.90;;;;;;4995594;28;20635;-82
2021/01/14 02:54:08;;;;;;;13.27;9.30;;;5.30;99.90;;;;;;4996058;28;20265;-83
2021/01/14 02:56:37;;;;;;;12.57;9.97;;;5.20;99.90;;;;;;4995733;28;20190;-84
2021/01/14 02:59:03;;;;;;;12.43;9.50;;;5.20;99.90;;;;;;4996901;28;20171;-86
2021/01/14 03:01:29;;;;;;;12.00;9.77;;;5.40;99.90;;;;;;4995212;28;20201;-84
2021/01/14 03:03:55;;;;;;;13.03;9.80;;;5.30;99.90;;;;;;4995546;28;20633;-83
2021/01/14 03:06:20;;;;;;;12.40;9.77;;;5.40;99.90;;;;;;4995305;28;20270;-83
2021/01/14 03:08:46;;;;;;;15.27;11.03;;;5.40;99.90;;;;;;4995207;28;20230;-84
2021/01/14 03:11:13;;;;;;;17.80;11.60;;;5.40;99.90;;;;;;4995098;28;20195;-85
2021/01/14 03:13:38;;;;;;;13.93;10.67;;;5.40;99.90;;;;;;4995255;28;20229;-85
2021/01/14 03:16:06;;;;;;;12.27;9.83;;;5.40;99.90;;;;;;4995134;28;20593;-84
2021/01/14 03:18:32;;;;;;;13.37;10.70;;;5.30;99.90;;;;;;4995429;28;20194;-84
2021/01/14 03:20:57;;;;;;;12.20;10.37;;;5.40;99.90;;;;;;4995240;28;20718;-84
2021/01/14 03:23:23;;;;;;;16.30;11.33;;;5.50;99.90;;;;;;4995230;28;20233;-85
2021/01/14 03:25:50;;;;;;;15.50;10.33;;;5.50;99.90;;;;;;4995255;28;20178;-86
2021/01/14 03:28:15;;;;;;;13.10;11.30;;;5.60;99.90;;;;;;4995269;28;20214;-84
2021/01/14 03:30:41;;;;;;;14.60;11.20;;;5.60;99.90;;;;;;4994939;28;20183;-83
2021/01/14 03:33:07;;;;;;;15.63;11.00;;;5.60;99.90;;;;;;4994969;28;20186;-84
2021/01/14 03:35:32;;;;;;;13.60;10.93;;;5.70;99.90;;;;;;4994975;28;20186;-86
2021/01/14 03:37:58;;;;;;;16.10;12.17;;;5.70;99.90;;;;;;4995001;28;20631;-85
2021/01/14 03:40:24;;;;;;;15.70;12.70;;;5.80;99.90;;;;;;4994322;28;20195;-84
2021/01/14 03:42:49;;;;;;;16.07;12.50;;;5.70;99.90;;;;;;4994699;28;20181;-86
2021/01/14 03:45:15;;;;;;;15.90;11.77;;;5.50;99.90;;;;;;4994651;28;20179;-85
2021/01/14 03:47:40;;;;;;;14.83;13.03;;;5.60;99.90;;;;;;4994383;28;20262;-83
2021/01/14 03:50:07;;;;;;;19.20;13.53;;;5.60;99.90;;;;;;4994790;28;20253;-85
2021/01/14 03:52:33;;;;;;;16.63;13.40;;;5.60;99.90;;;;;;4994618;28;20174;-85
2021/01/14 03:55:00;;;;;;;17.83;13.43;;;5.70;99.90;;;;;;4994879;28;20178;-84
2021/01/14 03:57:26;;;;;;;16.13;12.87;;;5.70;99.90;;;;;;4994474;28;20601;-86
2021/01/14 03:59:51;;;;;;;17.60;12.90;;;5.60;99.90;;;;;;4994424;28;20181;-86
2021/01/14 04:02:17;;;;;;;15.67;13.20;;;5.60;99.90;;;;;;4994449;28;20520;-85
2021/01/14 04:04:43;;;;;;;19.50;14.47;;;5.70;99.90;;;;;;4994432;28;20186;-84
2021/01/14 04:07:14;;;;;;;16.77;13.70;;;5.70;99.90;;;;;;4994356;28;20179;-83
2021/01/14 04:09:40;;;;;;;17.00;14.07;;;5.70;99.90;;;;;;4995500;28;20210;-85
2021/01/14 04:12:07;;;;;;;19.67;14.20;;;5.70;99.90;;;;;;4994597;28;20229;-84
2021/01/14 04:14:34;;;;;;;19.90;14.27;;;5.70;99.90;;;;;;4994096;28;20179;-87
2021/01/14 04:17:00;;;;;;;16.33;13.63;;;5.80;99.90;;;;;;4994213;28;20675;-85
2021/01/14 04:19:26;;;;;;;17.23;13.23;;;6.00;99.90;;;;;;4994330;28;20171;-86
2021/01/14 04:21:52;;;;;;;16.87;11.97;;;5.80;99.90;;;;;;4994085;28;20269;-84
2021/01/14 04:24:18;;;;;;;15.43;12.00;;;5.80;99.90;;;;;;4993714;28;20643;-83
2021/01/14 04:26:44;;;;;;;14.53;11.73;;;5.90;99.90;;;;;;4995075;28;20171;-83
2021/01/14 04:29:10;;;;;;;13.37;11.13;;;5.90;99.90;;;;;;4993332;28;20710;-82
2021/01/14 04:31:36;;;;;;;15.30;12.30;;;6.00;99.90;;;;;;4993721;28;20225;-84
2021/01/14 04:34:03;;;;;;;17.97;12.13;;;5.90;99.90;;;;;;4993463;28;20647;-84
2021/01/14 04:36:29;;;;;;;11.33;9.37;;;6.00;99.90;;;;;;4993706;28;20182;-83
2021/01/14 04:38:55;;;;;;;9.20;8.20;;;5.70;99.90;;;;;;4993344;28;20175;-83
2021/01/14 04:41:22;;;;;;;12.20;10.40;;;5.50;99.90;;;;;;4993540;28;20174;-83
2021/01/14 04:43:49;;;;;;;15.03;10.60;;;5.40;99.90;;;;;;4992962;28;20241;-82
2021/01/14 04:46:16;;;;;;;13.20;10.27;;;5.60;99.90;;;;;;4993266;28;20661;-83
2021/01/14 04:48:44;;;;;;;10.70;9.67;;;5.60;99.90;;;;;;4993040;28;20628;-83
2021/01/14 04:51:10;;;;;;;10.43;9.33;;;5.60;99.90;;;;;;4992528;28;20175;-84
2021/01/14 04:53:38;;;;;;;12.30;9.30;;;5.70;99.90;;;;;;4992945;28;20179;-83
2021/01/14 04:56:06;;;;;;;11.80;8.10;;;5.50;99.90;;;;;;4993071;28;20174;-83
2021/01/14 04:58:36;;;;;;;8.40;7.30;;;5.40;99.90;;;;;;4992855;28;20210;-83
2021/01/14 05:01:19;;;;;;;9.93;7.93;;;5.50;99.90;;;;;;4992973;28;20178;-83
2021/01/14 05:03:47;;;;;;;11.00;8.20;;;5.10;99.90;;;;;;4993121;28;20639;-85
2021/01/14 05:06:25;;;;;;;9.33;8.33;;;4.90;99.90;;;;;;4994081;28;20202;-85
2021/01/14 05:09:00;;;;;;;9.73;8.73;;;4.70;99.90;;;;;;4992501;28;20314;-84
2021/01/14 05:11:28;;;;;;;11.83;8.47;;;4.60;99.90;;;;;;4992981;28;20162;-84
2021/01/14 05:13:53;;;;;;;8.87;7.63;;;4.50;99.90;;;;;;4992530;28;20175;-84
2021/01/14 05:16:19;;;;;;;6.73;5.93;;;4.50;99.90;;;;;;4993103;28;20537;-84
2021/01/14 05:18:45;;;;;;;7.53;6.17;;;4.30;99.90;;;;;;4992967;28;20190;-84
2021/01/14 05:21:10;;;;;;;7.00;6.30;;;4.20;99.90;;;;;;4992949;28;20190;-85
2021/01/14 05:23:36;;;;;;;9.07;6.17;;;4.10;99.90;;;;;;4993116;28;20194;-83
2021/01/14 05:26:02;;;;;;;8.77;5.87;;;4.10;99.90;;;;;;4992298;28;20213;-84
2021/01/14 05:28:29;;;;;;;7.87;6.40;;;4.00;99.90;;;;;;4992768;28;20250;-84
2021/01/14 05:31:16;;;;;;;5.83;4.80;;;4.10;99.90;;;;;;4992631;28;20179;-84
2021/01/14 05:33:42;;;;;;;5.67;4.83;;;4.00;99.90;;;;;;4993183;28;20221;-84
2021/01/14 05:36:08;;;;;;;5.93;4.27;;;3.90;99.90;;;;;;4992666;28;20206;-85
2021/01/14 05:38:34;;;;;;;6.23;4.73;;;3.70;99.90;;;;;;4992924;28;20202;-84
2021/01/14 05:41:18;;;;;;;6.30;4.30;;;3.50;99.90;;;;;;4992282;28;20276;-84
2021/01/14 05:44:00;;;;;;;7.63;5.20;;;3.40;99.90;;;;;;4992374;28;20179;-84
2021/01/14 05:46:30;;;;;;;6.97;5.17;;;3.40;99.90;;;;;;4992512;28;20210;-84
2021/01/14 05:48:58;;;;;;;8.57;5.43;;;3.40;99.90;;;;;;4992539;28;20218;-82
2021/01/14 05:51:25;;;;;;;8.80;5.80;;;3.30;99.90;;;;;;4992319;28;20183;-82
2021/01/14 05:54:00;;;;;;;8.23;6.00;;;3.50;99.90;;;;;;4992598;28;20491;-84
2021/01/14 05:56:47;;;;;;;6.27;5.67;;;3.20;99.90;;;;;;4992105;28;20177;-84
2021/01/14 05:59:15;;;;;;;7.13;5.80;;;3.30;99.90;;;;;;4992768;28;20178;-84
2021/01/14 06:01:59;;;;;;;6.83;5.80;;;3.30;99.90;;;;;;4992815;28;20210;-85
2021/01/14 06:04:29;;;;;;;5.80;5.17;;;3.20;99.90;;;;;;4995808;28;20175;-84
2021/01/14 06:07:02;;;;;;;6.80;5.67;;;3.20;99.90;;;;;;4996458;28;20286;-84
2021/01/14 06:09:28;;;;;;;5.87;5.17;;;3.40;99.90;;;;;;4996550;28;20222;-84
2021/01/14 06:12:11;;;;;;;8.83;5.03;;;3.20;99.90;;;;;;4995862;28;20174;-85
2021/01/14 06:14:38;;;;;;;6.63;5.43;;;3.10;99.90;;;;;;4997389;28;20246;-84
2021/01/14 06:17:08;;;;;;;6.77;5.23;;;3.10;99.90;;;;;;4995925;28;20171;-84
2021/01/14 06:19:34;;;;;;;6.03;5.00;;;3.10;99.90;;;;;;4996099;28;20175;-84
2021/01/14 06:22:02;;;;;;;6.03;5.00;;;3.10;99.90;;;;;;4995988;28;20179;-84
2021/01/14 06:24:36;;;;;;;5.30;4.37;;;3.10;99.90;;;;;;4995755;28;20178;-84
2021/01/14 06:27:04;;;;;;;6.97;5.00;;;3.00;99.90;;;;;;4995878;28;20175;-86
2021/01/14 06:29:51;;;;;;;6.37;4.57;;;2.90;99.90;;;;;;4995705;28;20558;-84
2021/01/14 06:32:18;;;;;;;6.37;3.83;;;3.00;99.90;;;;;;4996657;28;20483;-86
2021/01/14 06:34:48;;;;;;;8.07;4.00;;;2.90;99.90;;;;;;4996246;28;20313;-85
2021/01/14 06:37:17;;;;;;;8.20;5.13;;;3.00;99.90;;;;;;4996039;28;20167;-83
2021/01/14 06:39:45;;;;;;;4.33;2.37;;;3.00;99.90;;;;;;4996038;28;20195;-85
2021/01/14 06:42:27;;;;;;;7.47;2.97;;;2.90;99.90;;;;;;4995845;28;20246;-83
2021/01/14 06:44:59;;;;;;;4.57;2.37;;;2.80;99.90;;;;;;4995486;28;20205;-85
2021/01/14 06:47:32;;;;;;;4.73;2.80;;;2.60;99.90;;;;;;4995832;28;20662;-83
2021/01/14 06:50:14;;;;;;;4.73;2.07;;;2.70;99.90;;;;;;4995468;28;20253;-86
2021/01/14 06:52:52;;;;;;;4.70;2.33;;;2.70;99.90;;;;;;4995792;28;20175;-85
2021/01/14 06:55:23;;;;;;;5.93;3.57;;;2.80;99.90;;;;;;4995222;28;20270;-83
2021/01/14 06:58:04;;;;;;;3.43;2.37;;;2.80;99.90;;;;;;4995415;28;20666;-85
2021/01/14 07:00:30;;;;;;;7.43;2.57;;;2.80;99.90;;;;;;4995702;28;20175;-83
2021/01/14 07:03:22;;;;;;;5.00;2.33;;;2.70;99.90;;;;;;4995344;28;20319;-83
2021/01/14 07:05:53;;;;;;;6.73;2.50;;;2.70;99.90;;;;;;4995464;28;20595;-84
2021/01/14 07:08:37;;;;;;;9.97;3.47;;;2.80;99.90;;;;;;4994849;28;20207;-85
2021/01/14 07:11:13;;;;;;;5.30;2.47;;;2.80;99.90;;;;;;4995555;28;20171;-85
2021/01/14 07:13:50;;;;;;;5.30;2.70;;;2.80;99.90;;;;;;4995056;28;20179;-82
2021/01/14 07:16:20;;;;;;;7.60;2.70;;;2.80;99.90;;;;;;4993858;28;20627;-84
2021/01/14 07:18:47;;;;;;;5.97;2.90;;;3.00;99.90;;;;;;4995364;28;20217;-85
2021/01/14 07:21:35;;;;;;;6.70;2.77;;;3.10;99.90;;;;;;4996679;28;20266;-85
2021/01/14 07:24:19;;;;;;;8.33;2.23;;;3.10;99.90;;;;;;5007847;28;20222;-85
2021/01/14 07:26:46;;;;;;;4.00;2.10;;;2.90;99.90;;;;;;5011895;28;20217;-87
2021/01/14 07:29:13;;;;;;;3.80;2.20;;;2.80;99.90;;;;;;5015188;28;20202;-87
2021/01/14 07:31:50;;;;;;;4.00;2.20;;;2.70;99.90;;;;;;5015244;28;20637;-86
2021/01/14 07:34:37;;;;;;;4.77;2.17;;;2.60;99.90;;;;;;5013244;28;20170;-87
2021/01/14 07:37:04;;;;;;;6.53;3.00;;;2.60;99.90;;;;;;5013508;28;20182;-86
2021/01/14 07:39:53;;;;;;;3.97;2.60;;;2.60;99.90;;;;;;5013908;28;20618;-86
2021/01/14 07:42:29;;;;;;;6.80;2.83;;;2.60;99.90;;;;;;5014024;28;20269;-85
2021/01/14 07:45:29;;;;;;;5.77;2.90;;;2.60;99.90;;;;;;5013767;28;20178;-86
2021/01/14 07:47:56;;;;;;;6.87;2.90;;;2.60;99.90;;;;;;4981461;28;20769;-85
2021/01/14 07:50:27;;;;;;;6.63;3.33;;;2.70;99.90;;;;;;5013300;28;20245;-87
2021/01/14 07:52:55;;;;;;;6.87;3.33;;;2.80;99.90;;;;;;5011729;28;20182;-85
2021/01/14 07:55:37;;;;;;;7.67;2.60;;;2.90;99.90;;;;;;5001780;28;20186;-83
2021/01/14 07:58:09;;;;;;;6.77;2.53;;;2.90;99.90;;;;;;5016685;28;20181;-85
2021/01/14 08:00:34;;;;;;;7.07;2.30;;;3.10;99.90;;;;;;5019385;28;20185;-84
2021/01/14 08:03:09;;;;;;;6.10;3.00;;;3.10;99.90;;;;;;5021138;28;20171;-84
2021/01/14 08:06:02;;;;;;;9.67;2.67;;;3.10;99.90;;;;;;5015809;28;20232;-83
2021/01/14 08:08:38;;;;;;;5.47;3.67;;;3.00;99.90;;;;;;5012814;28;20233;-84
2021/01/14 08:11:11;;;;;;;7.00;2.97;;;3.20;99.90;;;;;;5029331;28;20166;-84
2021/01/14 08:13:59;;;;;;;5.37;2.47;;;3.30;99.90;;;;;;5013860;28;20344;-85
2021/01/14 08:16:47;;;;;;;4.33;2.00;;;3.40;99.90;;;;;;5013863;28;20169;-84
2021/01/14 08:19:28;;;;;;;6.37;2.23;;;3.30;99.90;;;;;;5029242;28;20182;-83
2021/01/14 08:22:05;;;;;;;5.13;2.20;;;3.10;99.90;;;;;;5029019;28;20273;-85
2021/01/14 08:24:46;;;;;;;5.10;2.40;;;2.90;99.90;;;;;;5028439;28;20638;-85
2021/01/14 08:27:24;;;;;;;4.53;2.20;;;3.00;99.90;;;;;;4992891;28;20622;-84
2021/01/14 08:30:08;;;;;;;7.13;2.17;;;3.00;99.90;;;;;;4993615;28;20701;-85
2021/01/14 08:32:41;;;;;;;6.17;2.30;;;3.00;99.90;;;;;;4992970;28;20166;-85
2021/01/14 08:35:15;;;;;;;6.10;2.30;;;3.00;99.90;;;;;;4992412;28;20178;-85
2021/01/14 08:38:01;;;;;;;6.10;2.50;;;2.90;99.90;;;;;;4999460;28;20554;-84
2021/01/14 08:40:30;;;;;;;5.23;2.10;;;2.90;99.90;;;;;;4994918;28;20321;-84
2021/01/14 08:43:08;;;;;;;3.77;1.90;;;3.10;99.90;;;;;;4993989;28;20174;-86
2021/01/14 08:45:48;;;;;;;6.40;2.30;;;3.10;99.90;;;;;;4992666;28;20293;-83
2021/01/14 08:48:30;;;;;;;6.63;2.10;;;3.10;99.90;;;;;;4994502;28;20194;-85
2021/01/14 08:50:56;;;;;;;6.33;2.00;;;2.90;99.90;;;;;;4992844;28;20682;-84
2021/01/14 08:53:21;;;;;;;3.90;2.00;;;2.90;99.90;;;;;;4993132;28;20207;-84
2021/01/14 08:56:07;;;;;;;9.57;2.93;;;2.90;99.90;;;;;;4993082;28;20650;-85
2021/01/14 08:58:42;;;;;;;3.90;2.23;;;2.90;99.90;;;;;;4992388;28;20183;-83
2021/01/14 09:01:26;;;;;;;5.43;2.07;;;2.90;99.90;;;;;;5025285;28;20170;-82
2021/01/14 09:03:54;;;;;;;5.27;2.30;;;3.00;99.90;;;;;;5048587;28;20182;-82
2021/01/14 09:06:38;;;;;;;7.03;2.63;;;3.10;99.90;;;;;;5028933;28;20172;-83
2021/01/14 09:09:09;;;;;;;4.57;2.07;;;3.40;99.90;;;;;;5028989;28;20206;-84
2021/01/14 09:11:49;;;;;;;8.30;2.70;;;3.50;99.90;;;;;;5029257;28;20217;-84
2021/01/14 09:14:16;;;;;;;7.70;2.20;;;3.50;99.90;;;;;;5013904;28;20177;-87
2021/01/14 09:16:48;;;;;;;6.93;2.47;;;3.60;99.90;;;;;;5028688;28;20186;-84
2021/01/14 09:19:23;;;;;;;4.13;2.07;;;3.50;99.90;;;;;;5011962;28;20224;-83
2021/01/14 09:21:49;;;;;;;4.60;2.70;;;3.60;99.90;;;;;;5029098;28;20188;-85
2021/01/14 09:24:16;;;;;;;5.63;2.30;;;3.70;99.90;;;;;;5018174;28;20190;-83
2021/01/14 09:26:42;;;;;;;9.20;2.70;;;3.50;99.90;;;;;;4992971;28;20206;-85
2021/01/14 09:29:13;;;;;;;5.13;2.10;;;3.50;99.90;;;;;;4993668;28;20207;-83
2021/01/14 09:31:40;;;;;;;7.10;3.17;;;3.60;99.90;;;;;;4992674;28;20171;-82
2021/01/14 09:34:06;;;;;;;6.63;1.80;;;3.50;99.90;;;;;;4992484;28;20610;-85
2021/01/14 09:36:35;;;;;;;5.30;2.30;;;3.70;99.90;;;;;;4992568;28;20266;-85
2021/01/14 09:39:07;;;;;;;6.43;2.50;;;3.60;99.90;;;;;;4991882;28;20254;-85
2021/01/14 09:41:37;;;;;;;10.70;2.73;;;3.60;99.90;;;;;;4992043;28;20647;-84
2021/01/14 09:44:13;;;;;;;7.33;3.10;;;3.70;99.90;;;;;;4993395;28;20171;-84
2021/01/14 09:46:41;;;;;;;7.70;2.00;;;3.80;99.90;;;;;;4992119;28;20175;-85
2021/01/14 09:49:12;;;;;;;7.47;2.63;;;3.60;99.90;;;;;;4991792;28;20218;-84
2021/01/14 09:51:39;;;;;;;7.60;2.03;;;3.60;99.90;;;;;;4992257;28;20318;-84
2021/01/14 09:54:06;;;;;;;6.30;2.10;;;3.60;99.90;;;;;;4993296;28;20171;-84
2021/01/14 09:56:40;;;;;;;6.87;2.07;;;3.60;99.90;;;;;;4998138;28;20714;-84
2021/01/14 09:59:09;;;;;;;9.73;2.80;;;3.40;99.90;;;;;;5009372;28;20205;-85
2021/01/14 10:02:07;;;;;;;6.37;2.87;;;3.40;99.90;;;;;;5027369;28;20170;-84
2021/01/14 10:04:35;;;;;;;5.90;2.07;;;3.40;99.90;;;;;;4997449;28;20213;-84
2021/01/14 10:07:06;;;;;;;4.90;2.07;;;3.40;99.90;;;;;;5012300;28;20170;-84
2021/01/14 10:09:35;;;;;;;7.70;2.23;;;3.30;99.90;;;;;;5027570;28;20210;-83
2021/01/14 10:12:06;;;;;;;8.37;2.60;;;3.30;99.90;;;;;;5027987;28;20171;-84
2021/01/14 10:14:33;;;;;;;12.00;3.00;;;3.30;99.90;;;;;;5026477;28;20180;-84
2021/01/14 10:17:12;;;;;;;8.40;3.13;;;3.50;99.90;;;;;;5027548;28;20209;-84
2021/01/14 10:19:49;;;;;;;8.17;2.80;;;3.50;99.90;;;;;;5027874;28;20213;-83
2021/01/14 10:22:15;;;;;;;9.47;2.40;;;3.70;99.90;;;;;;5027618;28;20194;-84
2021/01/14 10:24:41;;;;;;;6.33;2.30;;;3.60;99.90;;;;;;5028063;28;20678;-85
2021/01/14 10:27:12;;;;;;;9.43;2.37;;;3.60;99.90;;;;;;5011545;28;20181;-85
2021/01/14 10:29:38;;;;;;;8.50;3.00;;;3.60;99.90;;;;;;5012903;28;20214;-83
2021/01/14 10:32:15;;;;;;;6.93;2.30;;;3.60;99.90;;;;;;5027466;28;20171;-83
2021/01/14 10:34:49;;;;;;;11.43;2.80;;;3.50;99.90;;;;;;5027998;28;20186;-85
2021/01/14 10:37:22;;;;;;;7.40;2.40;;;3.70;99.90;;;;;;5027928;28;20553;-85
2021/01/14 10:39:50;;;;;;;6.13;2.57;;;3.70;99.90;;;;;;5028214;28;20192;-86
2021/01/14 10:42:38;;;;;;;8.47;2.67;;;3.60;99.90;;;;;;5027501;28;20269;-87
2021/01/14 10:45:09;;;;;;;7.37;2.27;;;3.60;99.90;;;;;;5012816;28;20220;-86
2021/01/14 10:47:36;;;;;;;6.73;3.10;;;3.60;99.90;;;;;;5026946;28;20175;-83
2021/01/14 10:50:28;;;;;;;10.43;2.87;;;3.60;99.90;;;;;;5008351;28;20225;-83
2021/01/14 10:52:53;;;;;;;10.83;3.20;;;3.60;99.90;;;;;;5011165;28;20244;-85
2021/01/14 10:55:19;;;;;;;7.70;2.37;;;3.60;99.90;;;;;;5019801;28;20186;-82
2021/01/14 10:57:55;;;;;;;8.67;2.50;;;3.80;99.90;;;;;;5015308;28;20385;-82
2021/01/14 11:00:24;;;;;;;7.10;2.83;;;3.80;99.90;;;;;;5015961;28;20181;-85
2021/01/14 11:03:00;;;;;;;11.97;2.87;;;4.00;99.90;;;;;;5014530;28;20179;-84
2021/01/14 11:05:47;;;;;;;7.47;2.80;;;3.80;99.90;;;;;;5002920;28;20178;-87
2021/01/14 11:08:16;;;;;;;5.50;2.50;;;3.70;99.90;;;;;;5031317;28;20206;-85
2021/01/14 11:10:43;;;;;;;6.73;2.77;;;3.70;99.90;;;;;;5014874;28;20190;-87
2021/01/14 11:13:10;;;;;;;7.30;3.27;;;3.90;99.90;;;;;;5014335;28;20224;-85
2021/01/14 11:15:37;;;;;;;7.63;3.30;;;3.80;99.90;;;;;;5015091;28;20178;-84
2021/01/14 11:18:04;;;;;;;6.60;3.00;;;3.80;99.90;;;;;;5015389;28;20193;-85
2021/01/14 11:20:30;;;;;;;7.47;2.93;;;3.90;99.90;;;;;;5015154;28;20190;-86
2021/01/14 11:22:56;;;;;;;9.93;3.23;;;3.80;99.90;;;;;;5017049;28;20194;-82
2021/01/14 11:25:22;;;;;;;8.77;2.80;;;3.80;99.90;;;;;;5033182;28;20202;-85
2021/01/14 11:27:48;;;;;;;9.37;3.33;;;3.80;99.90;;;;;;5032304;28;20193;-85
2021/01/14 11:30:14;;;;;;;9.47;2.70;;;4.00;99.90;;;;;;5016003;28;20300;-83
2021/01/14 11:32:40;;;;;;;9.80;2.83;;;4.00;99.90;;;;;;5016629;28;20178;-88
2021/01/14 11:35:06;;;;;;;6.30;2.30;;;3.90;99.90;;;;;;5044367;28;20205;-83
2021/01/14 11:37:32;;;;;;;5.93;2.80;;;3.80;99.90;;;;;;5041438;28;20317;-87
2021/01/14 11:39:58;;;;;;;7.40;2.77;;;3.90;99.90;;;;;;5031378;28;20638;-86
2021/01/14 11:42:27;;;;;;;7.00;2.37;;;3.90;99.90;;;;;;5014519;28;20221;-84
2021/01/14 11:44:54;;;;;;;7.97;2.73;;;3.80;99.90;;;;;;5013582;28;20252;-86
2021/01/14 11:47:20;;;;;;;3.37;1.73;;;3.80;99.90;;;;;;5013859;28;20317;-85
2021/01/14 11:49:45;;;;;;;6.23;2.60;;;3.60;99.90;;;;;;5014485;28;20308;-83
2021/01/14 11:52:11;;;;;;;9.53;2.90;;;3.50;99.90;;;;;;5013439;28;20179;-84
2021/01/14 11:54:36;;;;;;;14.00;3.13;;;3.60;99.90;;;;;;5012770;28;20192;-83
2021/01/14 11:57:02;;;;;;;4.97;2.20;;;3.60;99.90;;;;;;5012668;28;20170;-84
2021/01/14 11:59:27;;;;;;;8.47;3.00;;;3.50;99.90;;;;;;5031249;28;20186;-85
2021/01/14 12:01:56;;;;;;;8.40;2.90;;;3.50;99.90;;;;;;5012067;28;20175;-84
2021/01/14 12:04:23;;;;;;;6.53;2.87;;;3.70;99.90;;;;;;5029724;28;20269;-84
2021/01/14 12:06:53;;;;;;;7.17;3.27;;;3.50;99.90;;;;;;5030244;28;20196;-81
2021/01/14 12:09:19;;;;;;;7.17;3.13;;;3.40;99.90;;;;;;5030124;28;20209;-83
2021/01/14 12:11:45;;;;;;;8.63;2.80;;;3.60;99.90;;;;;;5013523;28;20174;-85
2021/01/14 12:14:10;;;;;;;10.47;3.20;;;3.70;99.90;;;;;;5014635;28;20689;-86
2021/01/14 12:16:36;;;;;;;7.83;3.13;;;3.90;99.90;;;;;;5011242;28;20681;-84
2021/01/14 12:19:02;;;;;;;7.73;2.77;;;3.80;99.90;;;;;;5009536;28;20201;-84
2021/01/14 12:21:28;;;;;;;7.03;2.77;;;3.90;99.90;;;;;;5012524;28;20186;-86
2021/01/14 12:23:53;;;;;;;6.60;2.70;;;4.10;99.90;;;;;;5029697;28;20174;-87
2021/01/14 12:26:19;;;;;;;8.47;2.97;;;4.00;99.90;;;;;;5013950;28;20178;-86
2021/01/14 12:28:46;;;;;;;6.77;3.03;;;3.80;99.90;;;;;;5013797;28;20202;-89
2021/01/14 12:31:13;;;;;;;8.97;3.27;;;4.00;99.90;;;;;;5017980;28;20245;-83
2021/01/14 12:33:38;;;;;;;8.67;4.20;;;3.90;99.90;;;;;;5016137;28;20182;-83
2021/01/14 12:36:05;;;;;;;7.13;3.50;;;3.90;99.90;;;;;;5014225;28;20734;-83
2021/01/14 12:38:31;;;;;;;10.43;2.93;;;4.00;99.90;;;;;;5029507;28;20267;-83
2021/01/14 12:40:56;;;;;;;11.00;4.10;;;3.80;99.90;;;;;;5008254;28;20214;-88
2021/01/14 12:43:22;;;;;;;9.33;4.23;;;3.80;99.90;;;;;;4994480;28;20179;-86
2021/01/14 12:45:50;;;;;;;6.43;3.43;;;3.70;99.90;;;;;;4993168;28;20191;-85
2021/01/14 12:48:21;;;;;;;8.20;3.90;;;3.60;99.90;;;;;;4993391;28;20233;-85
2021/01/14 12:50:47;;;;;;;10.03;3.70;;;3.70;99.90;;;;;;5005870;28;20260;-89
2021/01/14 12:53:12;;;;;;;10.27;3.93;;;3.80;99.90;;;;;;5028591;28;20186;-84
2021/01/14 12:55:38;;;;;;;7.87;4.47;;;3.70;99.90;;;;;;5028416;28;20221;-84
2021/01/14 12:58:05;;;;;;;10.53;4.83;;;3.80;99.90;;;;;;5028755;28;20178;-89
2021/01/14 13:00:30;;;;;;;11.40;5.10;;;4.10;99.90;;;;;;5029257;28;20261;-83
2021/01/14 13:02:56;;;;;;;10.63;4.57;;;4.30;99.90;;;;;;5013800;28;20798;-88
2021/01/14 13:05:22;;;;;;;9.67;3.80;;;4.30;99.90;;;;;;5012390;28;20675;-83
2021/01/14 13:07:48;;;;;;;9.80;4.83;;;4.10;99.90;;;;;;5013603;28;20627;-88